createdAt,value
2022-11-26T00:01:45.521Z,154682.78
2022-11-26T00:04:14.360Z,154677.66
2022-11-26T00:06:44.668Z,154677.66
2022-11-26T00:09:16.468Z,154678.94
2022-11-26T00:11:44.125Z,154682.78
2022-11-26T00:14:15.375Z,154681.56
2022-11-26T00:16:43.259Z,154680.25
2022-11-26T00:19:10.911Z,154682.78
2022-11-26T00:21:42.129Z,154680.25
2022-11-26T00:24:24.980Z,154681.56
2022-11-26T00:26:52.450Z,154677.66
2022-11-26T00:29:19.962Z,154682.78
2022-11-26T00:31:47.446Z,154680.25
2022-11-26T00:34:14.943Z,154682.78
2022-11-26T00:36:45.447Z,154680.25
2022-11-26T00:39:18.089Z,154685.41
2022-11-26T00:41:49.346Z,154681.56
2022-11-26T00:44:19.563Z,154682.78
2022-11-26T00:46:47.271Z,154682.78
2022-11-26T00:49:14.983Z,154682.78
2022-11-26T00:51:44.524Z,154681.56
2022-11-26T00:54:16.147Z,154682.78
2022-11-26T00:56:43.606Z,154682.78
2022-11-26T00:59:14.222Z,154688.00
2022-11-26T01:01:42.304Z,154681.56
2022-11-26T01:04:09.919Z,154680.25
2022-11-26T01:06:41.023Z,154682.78
2022-11-26T01:09:17.223Z,154682.78
2022-11-26T01:11:44.783Z,154684.09
2022-11-26T01:14:16.697Z,154684.09
2022-11-26T01:16:45.965Z,154682.78
2022-11-26T01:19:15.782Z,154681.56
2022-11-26T01:21:43.877Z,154682.78
2022-11-26T01:24:12.667Z,154680.25
2022-11-26T01:26:42.187Z,154681.56
2022-11-26T01:29:15.297Z,154682.78
2022-11-26T01:31:42.875Z,154682.78
2022-11-26T01:34:10.443Z,154678.94
2022-11-26T01:36:39.771Z,154681.56
2022-11-26T01:39:14.792Z,154677.66
2022-11-26T01:41:48.877Z,154680.25
2022-11-26T01:44:20.347Z,154680.25
2022-11-26T01:46:48.506Z,154677.66
2022-11-26T01:49:18.434Z,154680.25
2022-11-26T01:51:48.046Z,154677.66
2022-11-26T01:54:16.371Z,154677.66
2022-11-26T01:56:47.641Z,154677.66
2022-11-26T01:59:21.291Z,154676.34
2022-11-26T02:01:50.299Z,154677.66
2022-11-26T02:04:20.744Z,154677.66
2022-11-26T02:06:50.892Z,154680.25
2022-11-26T02:09:19.411Z,154681.56
2022-11-26T02:11:48.678Z,154682.78
2022-11-26T02:14:19.178Z,154682.78
2022-11-26T02:17:04.763Z,154681.56
2022-11-26T02:20:16.857Z,154682.78
2022-11-26T02:23:17.859Z,154680.25
2022-11-26T02:26:12.278Z,154682.78
2022-11-26T02:29:01.280Z,154682.78
2022-11-26T02:31:36.820Z,154680.25
2022-11-26T02:34:11.924Z,154681.56
2022-11-26T02:36:43.439Z,154678.94
2022-11-26T02:39:15.970Z,154682.78
2022-11-26T02:41:46.473Z,154685.41
2022-11-26T02:44:15.651Z,154685.41
2022-11-26T02:46:46.774Z,154682.78
2022-11-26T02:49:18.587Z,154682.78
2022-11-26T02:51:48.561Z,154682.78
2022-11-26T02:54:17.466Z,154682.78
2022-11-26T02:56:45.252Z,154680.25
2022-11-26T02:59:14.960Z,154680.25
2022-11-26T03:01:48.533Z,154681.56
2022-11-26T03:04:21.191Z,154682.78
2022-11-26T03:06:49.248Z,154682.78
2022-11-26T03:09:17.566Z,154684.09
2022-11-26T03:11:45.140Z,154677.66
2022-11-26T03:14:12.673Z,154682.78
2022-11-26T03:16:40.306Z,154682.78
2022-11-26T03:19:09.138Z,154681.56
2022-11-26T03:21:36.638Z,154680.25
2022-11-26T03:24:04.184Z,154680.25
2022-11-26T03:26:31.637Z,154680.25
2022-11-26T03:28:59.091Z,154678.94
2022-11-26T03:31:26.587Z,154677.66
2022-11-26T03:33:54.089Z,154678.94
2022-11-26T03:36:22.902Z,154680.25
2022-11-26T03:38:50.344Z,154676.34
2022-11-26T03:41:17.827Z,154680.25
2022-11-26T03:43:45.364Z,154680.25
2022-11-26T03:46:13.205Z,154678.94
2022-11-26T03:48:40.691Z,154680.25
2022-11-26T03:51:08.256Z,154682.78
2022-11-26T03:53:37.077Z,154678.94
2022-11-26T03:56:04.855Z,154680.25
2022-11-26T03:58:32.339Z,154681.56
2022-11-26T04:00:59.828Z,154681.56
2022-11-26T04:03:27.489Z,154680.25
2022-11-26T04:05:54.979Z,154681.56
2022-11-26T04:08:22.444Z,154682.78
2022-11-26T04:10:54.341Z,154680.25
2022-11-26T04:13:21.883Z,154678.94
2022-11-26T04:15:49.792Z,154682.78
2022-11-26T04:18:17.650Z,154682.78
2022-11-26T04:20:47.658Z,154681.56
2022-11-26T04:23:19.003Z,154680.25
2022-11-26T04:25:46.462Z,154681.56
2022-11-26T04:28:15.294Z,154682.78
2022-11-26T04:30:43.215Z,154678.94
2022-11-26T04:33:10.986Z,154682.78
2022-11-26T04:35:38.641Z,154685.41
2022-11-26T04:38:06.614Z,154682.78
2022-11-26T04:40:34.129Z,154684.09
2022-11-26T04:43:01.757Z,154690.59
2022-11-26T04:45:30.641Z,154694.50
2022-11-26T04:47:58.160Z,154695.81
2022-11-26T04:50:25.765Z,154700.94
2022-11-26T04:52:53.235Z,154697.06
2022-11-26T04:55:20.724Z,154700.94
2022-11-26T04:57:48.680Z,154700.94
2022-11-26T05:00:18.447Z,154700.94
2022-11-26T05:02:47.350Z,154699.66
2022-11-26T05:05:14.904Z,154698.34
2022-11-26T05:07:42.438Z,154700.94
2022-11-26T05:10:11.475Z,154700.94
2022-11-26T05:12:39.122Z,154700.94
2022-11-26T05:15:08.592Z,154700.94
2022-11-26T05:17:36.090Z,154700.94
2022-11-26T05:20:05.836Z,154703.56
2022-11-26T05:22:33.427Z,154703.56
2022-11-26T05:25:00.910Z,154700.94
2022-11-26T05:27:28.521Z,154703.56
2022-11-26T05:29:56.046Z,154703.56
2022-11-26T05:32:23.504Z,154702.25
2022-11-26T05:34:53.362Z,154702.25
2022-11-26T05:37:24.574Z,154703.56
2022-11-26T05:39:52.222Z,154699.66
2022-11-26T05:42:19.684Z,154703.56
2022-11-26T05:44:47.125Z,154698.34
2022-11-26T05:47:14.580Z,154699.66
2022-11-26T05:49:42.095Z,154698.34
2022-11-26T05:52:09.569Z,154699.66
2022-11-26T05:54:38.553Z,154699.66
2022-11-26T05:57:06.304Z,154700.94
2022-11-26T05:59:33.755Z,154698.34
2022-11-26T06:02:01.231Z,154703.56
2022-11-26T06:04:29.095Z,154700.94
2022-11-26T06:06:56.595Z,154700.94
2022-11-26T06:09:24.121Z,154703.56
2022-11-26T06:11:53.248Z,154703.56
2022-11-26T06:14:21.122Z,154706.16
2022-11-26T06:16:48.631Z,154706.16
2022-11-26T06:19:16.166Z,154708.75
2022-11-26T06:21:43.682Z,154706.16
2022-11-26T06:24:12.251Z,154703.56
2022-11-26T06:26:39.718Z,154706.16
2022-11-26T06:29:08.501Z,154703.56
2022-11-26T06:31:36.135Z,154703.56
2022-11-26T06:34:03.832Z,154706.16
2022-11-26T06:36:31.315Z,154706.16
2022-11-26T06:38:58.785Z,154707.44
2022-11-26T06:41:26.305Z,154706.16
2022-11-26T06:43:53.826Z,154706.16
2022-11-26T06:46:22.707Z,154706.16
2022-11-26T06:48:50.505Z,154706.16
2022-11-26T06:51:20.462Z,154703.56
2022-11-26T06:53:47.955Z,154706.16
2022-11-26T06:56:19.055Z,154706.16
2022-11-26T06:58:47.704Z,154706.16
2022-11-26T07:01:18.140Z,154708.75
2022-11-26T07:03:47.456Z,154706.16
2022-11-26T07:06:19.858Z,154708.75
2022-11-26T07:08:47.441Z,154706.16
2022-11-26T07:11:15.496Z,154706.16
2022-11-26T07:13:43.345Z,154702.25
2022-11-26T07:16:11.590Z,154703.56
2022-11-26T07:18:39.275Z,154703.56
2022-11-26T07:21:10.028Z,154703.56
2022-11-26T07:23:37.656Z,154703.56
2022-11-26T07:26:06.670Z,154698.34
2022-11-26T07:28:35.396Z,154698.34
2022-11-26T07:31:04.265Z,154700.94
2022-11-26T07:33:31.844Z,154712.59
2022-11-26T07:36:00.554Z,154704.84
2022-11-26T07:38:30.138Z,154698.34
2022-11-26T07:41:04.334Z,154699.66
2022-11-26T07:43:31.648Z,154695.81
2022-11-26T07:46:02.166Z,154700.94
2022-11-26T07:48:30.842Z,154698.34
2022-11-26T07:50:58.427Z,154698.34
2022-11-26T07:53:30.386Z,154698.34
2022-11-26T07:55:57.890Z,154698.34
2022-11-26T07:58:26.663Z,154699.66
2022-11-26T08:00:54.931Z,154700.94
2022-11-26T08:03:23.027Z,154700.94
2022-11-26T08:05:50.611Z,154699.66
2022-11-26T08:08:18.132Z,154721.72
2022-11-26T08:10:46.992Z,154742.41
2022-11-26T08:13:14.759Z,154729.47
2022-11-26T08:15:42.204Z,154759.28
2022-11-26T08:18:09.647Z,154792.94
2022-11-26T08:20:37.253Z,154822.75
2022-11-26T08:23:04.838Z,154834.41
2022-11-26T08:25:32.298Z,154842.22
2022-11-26T08:28:01.085Z,154760.56
2022-11-26T08:30:28.550Z,154908.38
2022-11-26T08:32:55.994Z,154882.47
2022-11-26T08:35:38.708Z,154844.84
2022-11-26T08:38:10.906Z,154875.97
2022-11-26T08:40:38.348Z,154371.88
2022-11-26T08:43:09.577Z,154291.63
2022-11-26T08:45:37.031Z,154454.81
2022-11-26T08:48:04.889Z,154690.59
2022-11-26T08:50:32.508Z,154769.63
2022-11-26T08:52:59.969Z,154799.44
2022-11-26T08:55:53.449Z,154821.47
2022-11-26T08:58:16.235Z,154765.72
2022-11-26T09:00:44.219Z,154830.56
2022-11-26T09:03:11.753Z,154809.81
2022-11-26T09:05:39.255Z,154791.66
2022-11-26T09:08:06.842Z,154776.13
2022-11-26T09:10:34.346Z,154769.63
2022-11-26T09:13:01.814Z,154770.94
2022-11-26T09:15:30.743Z,154768.34
2022-11-26T09:17:58.240Z,154770.94
2022-11-26T09:20:25.692Z,154778.69
2022-11-26T09:22:53.257Z,154807.22
2022-11-26T09:25:20.726Z,154815.00
2022-11-26T09:27:48.180Z,154827.97
2022-11-26T09:30:16.209Z,154831.81
2022-11-26T09:32:45.028Z,154847.38
2022-11-26T09:35:12.544Z,154830.56
2022-11-26T09:37:40.068Z,154808.50
2022-11-26T09:40:11.212Z,154794.25
2022-11-26T09:42:53.681Z,154785.19
2022-11-26T09:45:37.795Z,154781.28
2022-11-26T09:48:14.917Z,154781.28
2022-11-26T09:50:44.037Z,154778.69
2022-11-26T09:53:17.353Z,154773.53
2022-11-26T09:55:48.009Z,154773.53
2022-11-26T09:58:26.698Z,154776.13
2022-11-26T10:00:59.076Z,154776.13
2022-11-26T10:03:33.546Z,154774.84
2022-11-26T10:06:06.398Z,154774.84
2022-11-26T10:09:04.012Z,154774.84
2022-11-26T10:11:38.562Z,154774.84
